createdAt,value
2019-01-18T00:00:54.184Z,100054.42
2019-01-18T00:03:23.847Z,100059.69
2019-01-18T00:05:53.226Z,100065.45
2019-01-18T00:08:22.773Z,100058.96
2019-01-18T00:10:52.315Z,100061.45
2019-01-18T00:13:21.988Z,100070.02
2019-01-18T00:15:51.521Z,100063.72
2019-01-18T00:18:21.076Z,100065.97
2019-01-18T00:20:50.657Z,100063.83
2019-01-18T00:23:20.211Z,100069.81
2019-01-18T00:25:49.774Z,100072.45
2019-01-18T00:28:19.333Z,100071.39
2019-01-18T00:30:48.878Z,100076.89
2019-01-18T00:33:18.439Z,100082.69
2019-01-18T00:35:48.105Z,100078.92
2019-01-18T00:38:17.677Z,100086.83
2019-01-18T00:40:47.237Z,100090.03
2019-01-18T00:43:16.793Z,100094.84
2019-01-18T00:45:46.314Z,100097.75
2019-01-18T00:48:15.836Z,100098.97
2019-01-18T00:50:45.389Z,100106.56
2019-01-18T00:53:17.988Z,100111.36
2019-01-18T00:55:47.571Z,100108.53
2019-01-18T00:58:17.154Z,100111.90
2019-01-18T01:00:46.740Z,100121.02
2019-01-18T01:03:16.327Z,100122.50
2019-01-18T01:05:45.912Z,100130.31
2019-01-18T01:08:15.517Z,100123.72
2019-01-18T01:10:45.110Z,100127.98
2019-01-18T01:13:14.693Z,100128.20
2019-01-18T01:15:44.330Z,100132.21
2019-01-18T01:18:13.866Z,100135.33
2019-01-18T01:20:43.523Z,100140.22
2019-01-18T01:23:13.072Z,100135.18
2019-01-18T01:25:42.755Z,100145.22
2019-01-18T01:28:12.429Z,100148.91
2019-01-18T01:30:42.076Z,100154.34
2019-01-18T01:33:11.643Z,100153.94
2019-01-18T01:35:41.224Z,100166.68
2019-01-18T01:38:10.725Z,100173.98
2019-01-18T01:40:40.406Z,100179.16
2019-01-18T01:43:10.069Z,100180.27
2019-01-18T01:45:39.655Z,100184.63
2019-01-18T01:48:09.176Z,100188.18
2019-01-18T01:50:38.685Z,100188.55
2019-01-18T01:53:08.241Z,100191.59
2019-01-18T01:55:37.793Z,100189.80
2019-01-18T01:58:07.384Z,100192.81
2019-01-18T02:00:36.965Z,100194.00
2019-01-18T02:03:06.564Z,100197.81
2019-01-18T02:05:36.007Z,100204.20
2019-01-18T02:08:05.555Z,100206.41
2019-01-18T02:10:35.134Z,100199.85
2019-01-18T02:13:04.662Z,100208.22
2019-01-18T02:15:34.277Z,100211.98
2019-01-18T02:18:03.915Z,100210.09
2019-01-18T02:20:34.466Z,100198.80
2019-01-18T02:23:04.178Z,100201.45
2019-01-18T02:25:33.706Z,100206.23
2019-01-18T02:28:03.277Z,100215.55
2019-01-18T02:30:32.823Z,100215.09
2019-01-18T02:33:02.480Z,100217.63
2019-01-18T02:35:31.966Z,100223.67
2019-01-18T02:38:01.690Z,100222.06
2019-01-18T02:40:31.226Z,100227.88
2019-01-18T02:43:00.825Z,100232.11
2019-01-18T02:45:30.343Z,100228.42
2019-01-18T02:47:59.924Z,100220.63
2019-01-18T02:50:29.481Z,100228.30
2019-01-18T02:52:59.027Z,100228.30
2019-01-18T02:55:29.179Z,100232.44
2019-01-18T02:57:58.766Z,100237.33
2019-01-18T03:00:28.197Z,100240.91
2019-01-18T03:02:57.726Z,100246.79
2019-01-18T03:05:27.988Z,100251.61
2019-01-18T03:07:57.534Z,100247.89
2019-01-18T03:10:28.873Z,100248.36
2019-01-18T03:12:58.443Z,100261.91
2019-01-18T03:15:28.099Z,100264.07
2019-01-18T03:17:57.742Z,100266.08
2019-01-18T03:20:27.172Z,100267.45
2019-01-18T03:22:56.633Z,100265.04
2019-01-18T03:25:29.964Z,100269.65
2019-01-18T03:27:59.425Z,100269.34
2019-01-18T03:30:29.002Z,100276.58
2019-01-18T03:32:58.532Z,100281.03
2019-01-18T03:35:28.125Z,100275.57
2019-01-18T03:37:57.657Z,100274.23
2019-01-18T03:40:27.220Z,100281.66
2019-01-18T03:42:56.756Z,100277.05
2019-01-18T03:45:26.292Z,100286.08
2019-01-18T03:47:55.964Z,100293.22
2019-01-18T03:50:27.102Z,100297.23
2019-01-18T03:52:56.794Z,100306.05
2019-01-18T03:55:26.266Z,100320.77
2019-01-18T03:57:55.845Z,100319.06
2019-01-18T04:00:27.373Z,100323.36
2019-01-18T04:02:56.993Z,100317.91
2019-01-18T04:05:26.587Z,100327.69
2019-01-18T04:07:56.206Z,100327.70
2019-01-18T04:10:25.783Z,100327.27
2019-01-18T04:12:55.346Z,100334.83
2019-01-18T04:15:24.966Z,100333.19
2019-01-18T04:17:54.459Z,100326.77
2019-01-18T04:20:24.010Z,100318.41
2019-01-18T04:22:53.439Z,100318.08
2019-01-18T04:25:26.625Z,100324.66
2019-01-18T04:27:56.185Z,100322.23
2019-01-18T04:30:32.965Z,100320.95
2019-01-18T04:32:57.121Z,100320.09
2019-01-18T04:35:26.578Z,100321.73
2019-01-18T04:37:56.135Z,100320.66
2019-01-18T04:40:26.866Z,100325.83
2019-01-18T04:42:56.445Z,100331.52
2019-01-18T04:45:26.028Z,100327.43
2019-01-18T04:47:55.562Z,100339.15
2019-01-18T04:50:26.467Z,100344.89
2019-01-18T04:52:56.026Z,100353.20
2019-01-18T04:55:25.611Z,100345.61
2019-01-18T04:57:55.148Z,100362.45
2019-01-18T05:00:26.577Z,100366.84
2019-01-18T05:02:56.115Z,100379.26
2019-01-18T05:05:25.759Z,100381.52
2019-01-18T05:07:55.305Z,100386.59
2019-01-18T05:10:26.121Z,100394.00
2019-01-18T05:12:55.664Z,100398.95
2019-01-18T05:15:27.274Z,100411.56
2019-01-18T05:17:56.871Z,100419.06
2019-01-18T05:20:26.398Z,100430.53
2019-01-18T05:22:55.937Z,100429.95
2019-01-18T05:25:25.437Z,100441.43
2019-01-18T05:27:55.024Z,100446.94
2019-01-18T05:30:26.401Z,100445.02
2019-01-18T05:32:55.947Z,100453.19
2019-01-18T05:35:25.474Z,100455.72
2019-01-18T05:37:54.982Z,100465.56
2019-01-18T05:40:24.529Z,100469.09
2019-01-18T05:42:54.066Z,100476.17
2019-01-18T05:45:23.599Z,100483.86
2019-01-18T05:47:53.221Z,100480.14
2019-01-18T05:50:27.629Z,100497.87
2019-01-18T05:52:57.386Z,100494.98
2019-01-18T05:55:26.872Z,100494.97
2019-01-18T05:57:56.394Z,100507.52
2019-01-18T06:00:36.918Z,100505.37
2019-01-18T06:03:06.827Z,100519.30
2019-01-18T06:05:38.686Z,100519.45
2019-01-18T06:08:08.254Z,100518.80
2019-01-18T06:10:37.771Z,100515.59
2019-01-18T06:13:07.503Z,100510.06
2019-01-18T06:15:37.053Z,100523.09
2019-01-18T06:18:06.625Z,100516.02
2019-01-18T06:20:36.158Z,100515.54
2019-01-18T06:23:05.675Z,100513.98
2019-01-18T06:25:35.362Z,100521.28
2019-01-18T06:28:04.976Z,100507.69
2019-01-18T06:30:34.633Z,100511.59
2019-01-18T06:33:04.385Z,100515.66
2019-01-18T06:35:33.856Z,100518.08
2019-01-18T06:38:03.403Z,100518.73
2019-01-18T06:40:32.925Z,100520.47
2019-01-18T06:43:02.455Z,100528.16
2019-01-18T06:45:32.419Z,100540.30
2019-01-18T06:48:02.036Z,100539.23
2019-01-18T06:50:31.701Z,100551.34
2019-01-18T06:53:01.481Z,100546.59
2019-01-18T06:55:31.143Z,100547.98
2019-01-18T06:58:00.771Z,100550.66
2019-01-18T07:00:32.434Z,100550.64
2019-01-18T07:03:02.057Z,100563.16
2019-01-18T07:05:31.727Z,100563.25
2019-01-18T07:08:01.345Z,100563.42
2019-01-18T07:10:31.037Z,100567.20
2019-01-18T07:13:00.794Z,100568.38
2019-01-18T07:15:30.411Z,100576.22
2019-01-18T07:18:00.196Z,100581.02
2019-01-18T07:20:29.777Z,100586.37
2019-01-18T07:22:59.528Z,100591.97
2019-01-18T07:25:32.730Z,100594.19
2019-01-18T07:28:02.536Z,100598.62
2019-01-18T07:30:34.789Z,100605.41
2019-01-18T07:33:05.220Z,100605.44
2019-01-18T07:35:34.793Z,100611.14
2019-01-18T07:38:04.333Z,100616.30
2019-01-18T07:40:33.954Z,100610.09
2019-01-18T07:43:03.702Z,100614.21
2019-01-18T07:45:33.480Z,100624.90
2019-01-18T07:48:03.179Z,100626.23
2019-01-18T07:50:32.802Z,100629.20
2019-01-18T07:53:02.352Z,100628.22
2019-01-18T07:55:32.194Z,100632.93
2019-01-18T07:58:01.998Z,100632.52
2019-01-18T08:00:31.916Z,100634.58
2019-01-18T08:03:01.615Z,100634.15
2019-01-18T08:05:33.614Z,100646.16
2019-01-18T08:08:03.534Z,100657.20
2019-01-18T08:10:33.957Z,100656.89
2019-01-18T08:13:03.572Z,100664.13
2019-01-18T08:15:33.481Z,100658.94
2019-01-18T08:18:03.138Z,100670.19
2019-01-18T08:20:32.788Z,100672.53
2019-01-18T08:23:02.982Z,100678.53
2019-01-18T08:25:32.712Z,100680.12
2019-01-18T08:28:03.035Z,100684.61
2019-01-18T08:30:32.750Z,100687.41
2019-01-18T08:33:02.521Z,100687.22
2019-01-18T08:35:32.675Z,100694.05
2019-01-18T08:38:02.557Z,100692.34
2019-01-18T08:40:34.783Z,100696.84
2019-01-18T08:43:04.980Z,100704.92
2019-01-18T08:45:37.659Z,100711.08
2019-01-18T08:48:07.833Z,100710.45
2019-01-18T08:50:37.613Z,100707.54
2019-01-18T08:53:07.240Z,100706.10
2019-01-18T08:55:36.954Z,100710.11
2019-01-18T08:58:06.748Z,100708.26
2019-01-18T09:00:36.441Z,100716.64
2019-01-18T09:03:05.960Z,100720.89
2019-01-18T09:05:35.533Z,100722.16
2019-01-18T09:08:05.065Z,100717.83
2019-01-18T09:10:34.613Z,100724.14
2019-01-18T09:13:04.165Z,100714.91
2019-01-18T09:15:33.732Z,100715.41
2019-01-18T09:18:03.300Z,100719.73
2019-01-18T09:20:32.856Z,100725.80
2019-01-18T09:23:02.489Z,100724.18
2019-01-18T09:25:32.069Z,100731.35
2019-01-18T09:28:01.519Z,100721.45
2019-01-18T09:30:33.663Z,100724.88
2019-01-18T09:33:04.589Z,100731.17
2019-01-18T09:35:34.553Z,100731.17
2019-01-18T09:38:04.459Z,100733.22
2019-01-18T09:40:34.266Z,100742.14
2019-01-18T09:43:03.624Z,100736.96
2019-01-18T09:45:33.148Z,100753.55
2019-01-18T09:48:02.706Z,100756.48
2019-01-18T09:50:33.127Z,100756.48
2019-01-18T09:53:02.979Z,100755.02
2019-01-18T09:55:32.443Z,100759.84
2019-01-18T09:58:02.135Z,100765.53
2019-01-18T10:00:36.354Z,100744.89
2019-01-18T10:03:05.931Z,100755.25
2019-01-18T10:05:35.466Z,100763.84
2019-01-18T10:08:06.897Z,100770.41
2019-01-18T10:10:36.463Z,100771.27
2019-01-18T10:13:06.060Z,100771.27
2019-01-18T10:15:38.171Z,100773.53
2019-01-18T10:18:07.985Z,100771.71
2019-01-18T10:20:37.522Z,100768.93
2019-01-18T10:23:07.078Z,100768.93
2019-01-18T10:25:36.645Z,100772.47
2019-01-18T10:28:06.181Z,100770.75
2019-01-18T10:30:35.714Z,100766.70
2019-01-18T10:33:05.295Z,100764.76
2019-01-18T10:35:53.911Z,100778.31
2019-01-18T10:38:23.334Z,100780.43
2019-01-18T10:40:53.126Z,100776.41
2019-01-18T10:43:22.920Z,100779.09
2019-01-18T10:45:52.458Z,100787.20
2019-01-18T10:48:22.109Z,100780.11
2019-01-18T10:50:51.726Z,100777.43
2019-01-18T10:53:21.302Z,100785.30
2019-01-18T10:55:50.945Z,100782.61
2019-01-18T10:58:20.643Z,100779.23
2019-01-18T11:00:50.223Z,100785.64
2019-01-18T11:03:19.956Z,100785.89
2019-01-18T11:05:49.717Z,100784.91
2019-01-18T11:08:19.492Z,100786.98
2019-01-18T11:10:49.428Z,100783.47
2019-01-18T11:13:19.120Z,100788.88
2019-01-18T11:15:48.876Z,100787.27
2019-01-18T11:18:18.414Z,100781.86
2019-01-18T11:21:08.237Z,100782.37
2019-01-18T11:23:37.830Z,100781.97
2019-01-18T11:26:07.473Z,100782.14
2019-01-18T11:28:37.004Z,100786.05
2019-01-18T11:31:06.581Z,100782.05
2019-01-18T11:33:36.304Z,100779.94
2019-01-18T11:36:08.261Z,100775.27
2019-01-18T11:38:38.343Z,100775.77
2019-01-18T11:41:07.977Z,100777.93
2019-01-18T11:43:37.733Z,100780.31
2019-01-18T11:46:07.470Z,100778.45
2019-01-18T11:48:37.595Z,100773.55
2019-01-18T11:51:07.433Z,100766.64
2019-01-18T11:53:37.312Z,100766.20
2019-01-18T11:56:06.955Z,100768.82
2019-01-18T11:58:36.841Z,100769.72
2019-01-18T12:01:06.906Z,100755.31
2019-01-18T12:03:36.706Z,100758.47
2019-01-18T12:06:06.684Z,100758.47
2019-01-18T12:08:36.642Z,100755.42
2019-01-18T12:11:06.318Z,100751.23
2019-01-18T12:13:35.991Z,100747.85
2019-01-18T12:16:05.726Z,100747.85
2019-01-18T12:18:35.482Z,100740.86
2019-01-18T12:21:05.148Z,100744.12
2019-01-18T12:23:34.903Z,100731.72
2019-01-18T12:26:04.620Z,100737.86
2019-01-18T12:28:34.237Z,100737.86
2019-01-18T12:31:03.864Z,100733.59
2019-01-18T12:33:33.435Z,100726.33
2019-01-18T12:36:03.072Z,100715.58
2019-01-18T12:38:32.746Z,100731.19
2019-01-18T12:41:02.516Z,100729.92
2019-01-18T12:43:32.170Z,100729.92
2019-01-18T12:46:01.913Z,100726.16
2019-01-18T12:48:31.575Z,100722.70
2019-01-18T12:51:01.345Z,100732.80
2019-01-18T12:53:31.016Z,100729.61
2019-01-18T12:56:00.680Z,100729.61
2019-01-18T12:58:30.325Z,100727.52
2019-01-18T13:00:59.980Z,100738.06
2019-01-18T13:03:29.741Z,100739.78
2019-01-18T13:05:59.412Z,100734.30
2019-01-18T13:08:29.041Z,100727.02
2019-01-18T13:10:58.720Z,100732.89
2019-01-18T13:13:28.386Z,100728.31
2019-01-18T13:16:27.855Z,100732.61
2019-01-18T13:19:00.375Z,100724.09
2019-01-18T13:21:30.012Z,100716.99
2019-01-18T13:23:59.592Z,100713.11
2019-01-18T13:26:29.259Z,100716.44
2019-01-18T13:28:58.791Z,100718.18
2019-01-18T13:31:28.562Z,100714.13
2019-01-18T13:33:58.218Z,100715.31
2019-01-18T13:36:28.775Z,100712.82
2019-01-18T13:38:58.355Z,100715.23
2019-01-18T13:41:28.210Z,100709.89
2019-01-18T13:43:57.859Z,100711.94
2019-01-18T13:46:27.638Z,100717.31
2019-01-18T13:48:57.388Z,100718.87
2019-01-18T13:51:27.050Z,100715.63
2019-01-18T13:53:56.797Z,100714.59
2019-01-18T13:56:26.598Z,100716.33
2019-01-18T13:58:56.234Z,100721.34
2019-01-18T14:01:26.086Z,100725.00
2019-01-18T14:03:55.649Z,100723.11
2019-01-18T14:06:25.291Z,100732.33
2019-01-18T14:08:55.900Z,100732.20
2019-01-18T14:11:25.650Z,100729.34
2019-01-18T14:13:55.418Z,100739.97
2019-01-18T14:16:25.178Z,100733.57
2019-01-18T14:18:54.924Z,100741.23
2019-01-18T14:21:24.589Z,100740.12
2019-01-18T14:23:54.253Z,100737.59
2019-01-18T14:26:23.866Z,100732.77
2019-01-18T14:28:53.495Z,100741.37
2019-01-18T14:31:23.098Z,100743.55
2019-01-18T14:33:52.742Z,100735.86
2019-01-18T14:36:22.393Z,100734.09
2019-01-18T14:38:52.087Z,100736.52
2019-01-18T14:41:21.859Z,100741.00
2019-01-18T14:43:51.547Z,100736.85
2019-01-18T14:46:21.117Z,100731.81
2019-01-18T14:48:50.898Z,100736.62
2019-01-18T14:51:20.477Z,100736.88
2019-01-18T14:53:50.103Z,100739.31
2019-01-18T14:56:19.851Z,100738.51
2019-01-18T14:58:49.540Z,100735.53
2019-01-18T15:01:19.171Z,100746.53
2019-01-18T15:03:48.856Z,100742.77
2019-01-18T15:06:18.632Z,100750.22
2019-01-18T15:08:48.327Z,100749.10
2019-01-18T15:11:17.927Z,100746.80
2019-01-18T15:13:47.610Z,100749.47
2019-01-18T15:16:17.256Z,100749.55
2019-01-18T15:18:46.999Z,100750.09
2019-01-18T15:21:16.614Z,100743.67
2019-01-18T15:23:46.231Z,100752.55
2019-01-18T15:26:18.507Z,100746.72
2019-01-18T15:28:47.305Z,100745.20
2019-01-18T15:31:17.016Z,100746.34
2019-01-18T15:33:46.694Z,100743.52
2019-01-18T15:36:16.237Z,100745.71
2019-01-18T15:38:45.905Z,100738.30
2019-01-18T15:41:15.465Z,100743.31
2019-01-18T15:43:45.122Z,100737.39
2019-01-18T15:46:14.777Z,100737.39
2019-01-18T15:48:44.476Z,100740.52
2019-01-18T15:51:14.113Z,100740.65
2019-01-18T15:53:43.919Z,100741.91
2019-01-18T15:56:13.587Z,100740.42
2019-01-18T15:58:43.239Z,100738.05
2019-01-18T16:01:12.870Z,100737.41
2019-01-18T16:03:42.559Z,100737.94
2019-01-18T16:06:12.192Z,100724.45
2019-01-18T16:08:41.790Z,100724.45
2019-01-18T16:11:11.525Z,100731.83
2019-01-18T16:13:41.208Z,100734.75
2019-01-18T16:16:22.016Z,100734.75
2019-01-18T16:18:51.759Z,100739.36
2019-01-18T16:21:21.432Z,100739.36
2019-01-18T16:23:51.126Z,100736.44
2019-01-18T16:26:20.745Z,100736.44
2019-01-18T16:28:50.418Z,100727.30
2019-01-18T16:31:20.059Z,100736.24
2019-01-18T16:33:49.740Z,100732.66
2019-01-18T16:36:19.205Z,100732.66
2019-01-18T16:38:48.835Z,100732.24
2019-01-18T16:41:18.477Z,100731.38
2019-01-18T16:43:47.929Z,100731.97
2019-01-18T16:46:17.625Z,100733.31
2019-01-18T16:48:47.451Z,100733.31
2019-01-18T16:51:17.128Z,100730.48
2019-01-18T16:53:46.691Z,100730.48
2019-01-18T16:56:16.251Z,100712.32
2019-01-18T16:58:45.917Z,100725.63
2019-01-18T17:01:15.568Z,100725.63
2019-01-18T17:03:45.366Z,100728.55
2019-01-18T17:06:15.025Z,100724.61
2019-01-18T17:08:44.657Z,100724.61
2019-01-18T17:11:14.407Z,100722.63
2019-01-18T17:13:44.057Z,100719.31
2019-01-18T17:16:13.734Z,100707.83
2019-01-18T17:18:43.876Z,100714.81
2019-01-18T17:21:13.654Z,100711.23
2019-01-18T17:23:43.025Z,100711.23
2019-01-18T17:26:12.415Z,100711.59
2019-01-18T17:28:41.900Z,100713.00
2019-01-18T17:31:11.723Z,100718.44
2019-01-18T17:33:41.335Z,100709.33
2019-01-18T17:36:19.298Z,100716.02
2019-01-18T17:39:16.684Z,100714.66
2019-01-18T17:42:29.350Z,100718.35
2019-01-18T17:45:36.651Z,100723.76
2019-01-18T17:48:21.327Z,100717.16
2019-01-18T17:51:22.835Z,100717.16
2019-01-18T17:54:38.899Z,100722.04
2019-01-18T17:58:04.650Z,100725.05
2019-01-18T18:00:41.452Z,100725.45
2019-01-18T18:04:13.309Z,100727.67
2019-01-18T18:07:26.466Z,100727.93
2019-01-18T18:10:17.196Z,100727.75
2019-01-18T18:13:01.103Z,100730.95
2019-01-18T18:16:26.163Z,100729.28
2019-01-18T18:19:33.748Z,100726.73
2019-01-18T18:22:32.229Z,100735.80
2019-01-18T18:25:32.191Z,100729.80
2019-01-18T18:28:15.076Z,100726.86
2019-01-18T18:30:59.038Z,100722.14
2019-01-18T18:34:21.661Z,100729.80
2019-01-18T18:37:37.043Z,100724.05
2019-01-18T18:40:37.472Z,100725.37
2019-01-18T18:43:45.174Z,100733.36
2019-01-18T18:47:01.786Z,100726.89
2019-01-18T18:50:09.169Z,100722.33
2019-01-18T18:53:26.912Z,100722.55
2019-01-18T18:56:40.792Z,100726.37
2019-01-18T18:59:51.138Z,100718.04
2019-01-18T19:02:47.687Z,100714.52
2019-01-18T19:05:38.029Z,100708.28
2019-01-18T19:08:45.466Z,100709.36
2019-01-18T19:11:54.517Z,100705.31
2019-01-18T19:14:53.991Z,100703.23
2019-01-18T19:17:53.092Z,100697.50
2019-01-18T19:21:03.659Z,100700.98
2019-01-18T19:24:02.265Z,100695.33
2019-01-18T19:27:07.387Z,100698.80
2019-01-18T19:30:15.405Z,100693.21
2019-01-18T19:33:37.967Z,100688.53
2019-01-18T19:36:53.441Z,100696.82
2019-01-18T19:40:04.382Z,100693.33
2019-01-18T19:43:23.716Z,100702.56
2019-01-18T19:46:22.358Z,100697.20
2019-01-18T19:49:38.479Z,100684.81
2019-01-18T19:52:52.820Z,100690.73
2019-01-18T19:55:59.780Z,100688.03
2019-01-18T19:59:06.481Z,100688.20
2019-01-18T20:01:56.760Z,100692.06
2019-01-18T20:04:59.050Z,100686.62
2019-01-18T20:07:57.637Z,100693.30
2019-01-18T20:11:01.240Z,100689.94
2019-01-18T20:14:00.351Z,100694.25
2019-01-18T20:17:09.904Z,100698.44
2019-01-18T20:20:28.031Z,100693.12
2019-01-18T20:23:33.375Z,100696.56
2019-01-18T20:26:34.521Z,100696.10
2019-01-18T20:29:46.727Z,100691.72
2019-01-18T20:32:34.562Z,100691.77
2019-01-18T20:35:40.865Z,100689.30
2019-01-18T20:38:58.386Z,100696.36
2019-01-18T20:42:07.808Z,100693.37
2019-01-18T20:45:19.507Z,100694.36
2019-01-18T20:48:33.752Z,100693.67
2019-01-18T20:51:41.356Z,100683.61
2019-01-18T20:54:32.778Z,100691.34
2019-01-18T20:57:29.257Z,100691.34
2019-01-18T21:00:44.303Z,100693.97
2019-01-18T21:03:53.122Z,100690.54
2019-01-18T21:06:38.925Z,100688.53
2019-01-18T21:10:01.670Z,100684.17
2019-01-18T21:13:27.781Z,100692.70
2019-01-18T21:16:33.953Z,100689.27
2019-01-18T21:19:46.906Z,100692.32
2019-01-18T21:22:57.887Z,100684.08
2019-01-18T21:26:00.972Z,100686.20
2019-01-18T21:28:53.339Z,100689.30
2019-01-18T21:31:55.255Z,100695.17
2019-01-18T21:34:37.450Z,100687.48
2019-01-18T21:37:50.079Z,100687.44
2019-01-18T21:41:06.280Z,100683.10
2019-01-18T21:44:24.516Z,100687.44
2019-01-18T21:47:30.763Z,100687.81
2019-01-18T21:50:30.914Z,100684.12
2019-01-18T21:53:26.727Z,100685.77
2019-01-18T21:56:28.758Z,100684.76
2019-01-18T21:59:54.647Z,100686.07
2019-01-18T22:03:26.075Z,100686.07
2019-01-18T22:06:29.555Z,100679.95
2019-01-18T22:09:20.657Z,100684.70
2019-01-18T22:12:39.334Z,100680.12
2019-01-18T22:15:30.792Z,100687.94
2019-01-18T22:18:13.426Z,100692.36
2019-01-18T22:21:30.163Z,100677.48
2019-01-18T22:24:40.380Z,100684.92
2019-01-18T22:27:56.661Z,100688.16
2019-01-18T22:31:05.189Z,100688.02
2019-01-18T22:33:59.057Z,100690.19
2019-01-18T22:37:15.870Z,100694.06
2019-01-18T22:40:41.184Z,100691.05
2019-01-18T22:43:43.050Z,100690.76
2019-01-18T22:46:49.519Z,100701.97
2019-01-18T22:49:44.328Z,100695.09
2019-01-18T22:52:51.102Z,100696.31
2019-01-18T22:56:17.045Z,100701.87
2019-01-18T22:59:12.131Z,100692.59
2019-01-18T23:02:13.500Z,100695.08
2019-01-18T23:04:59.478Z,100696.38
2019-01-18T23:08:14.040Z,100698.88
2019-01-18T23:11:11.776Z,100702.28
2019-01-18T23:14:18.174Z,100700.87
2019-01-18T23:17:25.875Z,100695.38
2019-01-18T23:20:49.148Z,100693.20
2019-01-18T23:23:42.610Z,100689.13
2019-01-18T23:26:42.766Z,100689.59
2019-01-18T23:29:45.215Z,100686.70
2019-01-18T23:32:54.958Z,100684.53
2019-01-18T23:36:14.656Z,100679.04
2019-01-18T23:39:33.208Z,100686.16
2019-01-18T23:42:52.000Z,100686.16
2019-01-18T23:45:56.281Z,100689.08
2019-01-18T23:49:10.437Z,100680.34
2019-01-18T23:52:26.333Z,100679.19
2019-01-18T23:55:37.505Z,100675.85
2019-01-18T23:58:49.918Z,100678.38
